createdAt,value
2023-03-28T00:00:03.289Z,-2.20
2023-03-28T00:02:41.785Z,-2.50
2023-03-28T00:05:11.387Z,-2.50
2023-03-28T00:07:40.060Z,-2.50
2023-03-28T00:10:09.523Z,-2.50
2023-03-28T00:12:37.976Z,-2.50
2023-03-28T00:15:07.280Z,-2.60
2023-03-28T00:17:35.689Z,-2.50
2023-03-28T00:20:10.316Z,-2.60
2023-03-28T00:22:39.316Z,-2.70
2023-03-28T00:25:09.409Z,-2.80
2023-03-28T00:27:37.735Z,-2.80
2023-03-28T00:30:08.213Z,-2.50
2023-03-28T00:32:37.294Z,-2.80
2023-03-28T00:35:07.836Z,-2.80
2023-03-28T00:37:36.221Z,-2.80
2023-03-28T00:40:07.780Z,-2.70
2023-03-28T00:42:36.070Z,-2.70
2023-03-28T00:45:04.925Z,-2.70
2023-03-28T00:47:45.902Z,-2.70
2023-03-28T00:50:22.679Z,-2.60
2023-03-28T00:52:56.356Z,-2.80
2023-03-28T00:55:29.770Z,-2.80
2023-03-28T00:57:58.509Z,-2.10
2023-03-28T01:00:27.674Z,-2.60
2023-03-28T01:03:01.771Z,-2.20
2023-03-28T01:05:35.013Z,-2.40
2023-03-28T01:08:08.656Z,-2.80
2023-03-28T01:10:37.373Z,-3.00
2023-03-28T01:13:08.833Z,-3.00
2023-03-28T01:15:38.066Z,-3.00
2023-03-28T01:18:11.714Z,-2.90
2023-03-28T01:21:19.588Z,-3.20
2023-03-28T01:24:12.417Z,-3.20
2023-03-28T01:26:50.604Z,-3.20
2023-03-28T01:30:01.029Z,-3.30
2023-03-28T01:33:03.331Z,-3.20
2023-03-28T01:35:54.292Z,-3.30
2023-03-28T01:38:31.650Z,-3.30
2023-03-28T01:41:05.742Z,-3.30
2023-03-28T01:43:52.339Z,-3.30
2023-03-28T01:46:27.447Z,-3.40
2023-03-28T01:49:01.101Z,-3.30
2023-03-28T01:51:45.601Z,-3.20
2023-03-28T01:54:22.314Z,-3.20
2023-03-28T01:56:59.392Z,-2.40
2023-03-28T01:59:38.810Z,-3.60
2023-03-28T02:02:40.296Z,-2.60
2023-03-28T02:05:34.216Z,-3.40
2023-03-28T02:08:08.398Z,-3.70
2023-03-28T02:10:47.582Z,-2.90
2023-03-28T02:13:48.733Z,-3.40
2023-03-28T02:16:41.427Z,-3.40
2023-03-28T02:19:39.435Z,-3.50
2023-03-28T02:22:30.141Z,-3.40
2023-03-28T02:25:01.546Z,-2.60
2023-03-28T02:27:54.987Z,-3.50
2023-03-28T02:30:49.276Z,-3.40
2023-03-28T02:33:38.940Z,-2.60
2023-03-28T02:36:23.562Z,-2.60
2023-03-28T02:39:02.049Z,-3.40
2023-03-28T02:41:40.854Z,-3.40
2023-03-28T02:44:36.472Z,-3.40
2023-03-28T02:47:16.528Z,-3.40
2023-03-28T02:49:52.743Z,-3.40
2023-03-28T02:52:35.222Z,-3.40
2023-03-28T02:55:14.589Z,-3.50
2023-03-28T02:58:00.200Z,-3.40
2023-03-28T03:00:31.313Z,-3.40
2023-03-28T03:02:59.933Z,-3.30
2023-03-28T03:05:28.430Z,-2.70
2023-03-28T03:07:57.236Z,-2.70
2023-03-28T03:10:25.912Z,-3.40
2023-03-28T03:12:54.395Z,-3.10
2023-03-28T03:15:23.086Z,-3.20
2023-03-28T03:17:58.725Z,-3.30
2023-03-28T03:20:33.644Z,-3.20
2023-03-28T03:23:02.558Z,-3.10
2023-03-28T03:25:33.778Z,-2.70
2023-03-28T03:28:17.014Z,-2.80
2023-03-28T03:30:46.396Z,-2.90
2023-03-28T03:33:27.195Z,-2.90
2023-03-28T03:36:01.644Z,-2.80
2023-03-28T03:38:30.516Z,-2.50
2023-03-28T03:40:59.250Z,-2.20
2023-03-28T03:43:28.494Z,-2.20
2023-03-28T03:45:57.741Z,-1.60
2023-03-28T03:48:29.792Z,-2.80
2023-03-28T03:51:00.612Z,-1.90
2023-03-28T03:53:29.865Z,-2.70
2023-03-28T03:56:10.281Z,-2.20
2023-03-28T03:58:55.826Z,-2.70
2023-03-28T04:01:30.279Z,-2.20
2023-03-28T04:04:09.333Z,-2.80
2023-03-28T04:06:59.115Z,-2.10
2023-03-28T04:09:28.778Z,-2.90
2023-03-28T04:12:02.230Z,-2.90
2023-03-28T04:14:32.271Z,-3.00
2023-03-28T04:17:28.779Z,-1.70
2023-03-28T04:20:00.236Z,-2.80
2023-03-28T04:22:30.057Z,-3.20
2023-03-28T04:25:01.714Z,-3.10
2023-03-28T04:27:39.550Z,-3.80
2023-03-28T04:30:10.062Z,-2.90
2023-03-28T04:32:59.231Z,-2.90
2023-03-28T04:35:30.875Z,-2.40
2023-03-28T04:38:01.057Z,-2.30
2023-03-28T04:40:30.600Z,-2.70
2023-03-28T04:43:29.103Z,-2.40
2023-03-28T04:45:58.643Z,-2.60
2023-03-28T04:48:28.113Z,-2.30
2023-03-28T04:50:58.099Z,-2.60
2023-03-28T04:53:26.499Z,-2.20
2023-03-28T04:56:13.971Z,-1.30
2023-03-28T04:58:42.620Z,-2.40
2023-03-28T05:01:11.856Z,-2.30
2023-03-28T05:04:00.388Z,-2.50
2023-03-28T05:06:30.265Z,-1.60
2023-03-28T05:08:58.911Z,-2.50
2023-03-28T05:11:31.275Z,-2.40
2023-03-28T05:13:59.736Z,-2.30
2023-03-28T05:16:33.403Z,-2.20
2023-03-28T05:19:25.350Z,-2.10
2023-03-28T05:22:06.716Z,-1.90
2023-03-28T05:24:44.858Z,-1.80
2023-03-28T05:27:18.684Z,-1.40
2023-03-28T05:29:47.155Z,-1.40
2023-03-28T05:32:16.724Z,-1.20
2023-03-28T05:34:46.096Z,-1.30
2023-03-28T05:37:16.182Z,-1.10
2023-03-28T05:39:52.776Z,-0.20
2023-03-28T05:42:21.228Z,-1.00
2023-03-28T05:44:50.323Z,-0.60
2023-03-28T05:47:30.729Z,-0.80
2023-03-28T05:49:59.734Z,-0.70
2023-03-28T05:52:29.517Z,-0.70
2023-03-28T05:54:58.202Z,-0.60
2023-03-28T05:57:26.590Z,-0.60
2023-03-28T05:59:55.178Z,-0.50
2023-03-28T06:02:25.635Z,-0.40
2023-03-28T06:05:00.266Z,0.40
2023-03-28T06:07:49.652Z,-0.40
2023-03-28T06:10:19.866Z,-0.50
2023-03-28T06:13:02.439Z,-0.40
2023-03-28T06:15:31.114Z,0.00
2023-03-28T06:17:59.637Z,-0.20
2023-03-28T06:20:28.469Z,-0.50
2023-03-28T06:22:58.811Z,-0.50
2023-03-28T06:25:27.099Z,-0.50
2023-03-28T06:27:56.021Z,-0.50
2023-03-28T06:30:24.439Z,-0.50
2023-03-28T06:32:54.948Z,-0.50
2023-03-28T06:35:23.254Z,-0.50
2023-03-28T06:37:51.675Z,-0.50
2023-03-28T06:40:28.584Z,-0.50
2023-03-28T06:42:57.670Z,0.10
2023-03-28T06:45:44.462Z,-0.50
2023-03-28T06:48:15.447Z,0.60
2023-03-28T06:51:10.199Z,-0.50
2023-03-28T06:53:39.120Z,-0.40
2023-03-28T06:56:12.814Z,-0.40
2023-03-28T06:58:41.447Z,0.20
2023-03-28T07:01:12.991Z,0.00
2023-03-28T07:03:55.503Z,-0.30
2023-03-28T07:06:27.196Z,-0.10
2023-03-28T07:08:57.428Z,-0.10
2023-03-28T07:11:36.590Z,0.00
2023-03-28T07:14:05.131Z,0.10
2023-03-28T07:16:33.631Z,0.10
2023-03-28T07:19:02.409Z,0.20
2023-03-28T07:21:34.595Z,0.40
2023-03-28T07:24:05.685Z,0.30
2023-03-28T07:26:48.198Z,0.20
2023-03-28T07:29:16.490Z,0.90
2023-03-28T07:31:44.816Z,0.40
2023-03-28T07:34:13.283Z,0.50
2023-03-28T07:36:42.046Z,0.50
2023-03-28T07:39:15.000Z,0.60
2023-03-28T07:41:43.462Z,0.70
2023-03-28T07:44:13.338Z,0.90
2023-03-28T07:46:42.210Z,1.80
2023-03-28T07:49:10.985Z,1.30
2023-03-28T07:51:39.769Z,1.90
2023-03-28T07:54:14.295Z,1.70
2023-03-28T07:56:44.821Z,1.90
2023-03-28T07:59:28.782Z,2.00
2023-03-28T08:01:57.438Z,2.40
2023-03-28T08:04:27.072Z,2.30
2023-03-28T08:07:02.513Z,2.40
2023-03-28T08:09:30.894Z,2.40
2023-03-28T08:12:09.965Z,3.60
2023-03-28T08:14:39.609Z,2.50
2023-03-28T08:17:08.674Z,2.30
2023-03-28T08:19:38.371Z,2.50
2023-03-28T08:22:12.658Z,2.50
2023-03-28T08:24:57.964Z,2.60
2023-03-28T08:27:26.888Z,2.70
2023-03-28T08:30:01.595Z,2.80
2023-03-28T08:32:31.795Z,3.60
2023-03-28T08:35:02.928Z,3.00
2023-03-28T08:37:32.751Z,3.20
2023-03-28T08:40:07.064Z,4.20
2023-03-28T08:42:58.323Z,4.40
2023-03-28T08:45:37.136Z,4.30
2023-03-28T08:48:16.394Z,4.40
2023-03-28T08:50:47.824Z,4.50
2023-03-28T08:53:27.487Z,4.10
2023-03-28T08:56:17.461Z,3.90
2023-03-28T08:59:16.786Z,4.30
2023-03-28T09:01:47.445Z,3.40
2023-03-28T09:04:25.868Z,3.50
2023-03-28T09:07:11.049Z,3.20
2023-03-28T09:09:51.563Z,3.20
2023-03-28T09:12:56.502Z,2.80
2023-03-28T09:15:38.186Z,2.30
2023-03-28T09:18:32.095Z,2.10
2023-03-28T09:21:11.702Z,2.40
2023-03-28T09:24:07.431Z,1.90
2023-03-28T09:27:02.564Z,1.90
2023-03-28T09:29:39.877Z,2.10
2023-03-28T09:32:27.696Z,1.90
2023-03-28T09:35:03.297Z,2.20
2023-03-28T09:37:40.463Z,1.90
2023-03-28T09:40:18.967Z,1.90
2023-03-28T09:43:29.753Z,1.90
2023-03-28T09:46:19.919Z,1.90
2023-03-28T09:49:19.088Z,1.80
2023-03-28T09:52:10.174Z,2.20
2023-03-28T09:54:42.740Z,2.10
2023-03-28T09:57:18.931Z,2.40
2023-03-28T10:00:42.855Z,2.00
2023-03-28T10:03:45.209Z,2.00
2023-03-28T10:06:25.937Z,2.00
2023-03-28T10:09:11.501Z,1.90
2023-03-28T10:11:59.442Z,2.50
2023-03-28T10:14:35.732Z,2.70
2023-03-28T10:17:28.568Z,2.60
2023-03-28T10:20:07.711Z,2.10
2023-03-28T10:22:43.145Z,2.20
2023-03-28T10:25:31.366Z,1.80
2023-03-28T10:28:11.428Z,2.70
2023-03-28T10:33:46.380Z,1.60
2023-03-28T10:36:37.524Z,1.80
2023-03-28T10:39:23.028Z,2.20
2023-03-28T10:42:18.157Z,1.80
2023-03-28T10:45:08.231Z,1.50
2023-03-28T10:47:48.129Z,1.60
2023-03-28T10:50:40.286Z,1.70
2023-03-28T10:53:27.217Z,1.70
2023-03-28T10:56:14.255Z,1.70
2023-03-28T10:58:53.273Z,1.80
2023-03-28T11:01:34.597Z,2.80
2023-03-28T11:04:26.528Z,1.90
2023-03-28T11:07:17.061Z,2.00
2023-03-28T11:10:20.278Z,2.30
2023-03-28T11:13:08.926Z,2.10
2023-03-28T11:15:50.768Z,2.00
2023-03-28T11:18:44.028Z,2.10
2023-03-28T11:21:39.220Z,1.90
2023-03-28T11:24:18.008Z,1.90
2023-03-28T11:27:16.090Z,1.90
2023-03-28T11:30:17.661Z,1.10
2023-03-28T11:33:20.055Z,2.10
2023-03-28T11:35:55.602Z,1.40
2023-03-28T11:38:33.986Z,2.30
2023-03-28T11:41:11.949Z,3.20
2023-03-28T11:44:25.472Z,2.70
2023-03-28T11:46:58.192Z,2.80
2023-03-28T11:49:39.823Z,2.80
2023-03-28T11:55:34.906Z,3.70
2023-03-28T11:58:20.426Z,1.90
2023-03-28T12:00:58.331Z,2.80
2023-03-28T12:03:49.791Z,2.90
2023-03-28T12:06:31.877Z,3.00
2023-03-28T12:09:09.752Z,2.40
2023-03-28T12:11:43.137Z,2.80
2023-03-28T12:14:32.592Z,2.30
2023-03-28T12:17:19.245Z,3.10
2023-03-28T12:19:49.474Z,2.60
2023-03-28T12:22:44.581Z,2.50
2023-03-28T12:25:29.286Z,2.80
2023-03-28T12:28:10.351Z,3.80
2023-03-28T12:30:48.696Z,3.30
2023-03-28T12:33:25.809Z,4.00
2023-03-28T12:36:43.231Z,3.40
2023-03-28T12:39:27.409Z,3.40
2023-03-28T12:41:59.982Z,3.20
2023-03-28T12:47:30.512Z,4.00
2023-03-28T12:50:09.331Z,4.00
2023-03-28T12:52:43.876Z,3.90
2023-03-28T12:58:59.861Z,3.70
2023-03-28T13:01:52.227Z,3.70
2023-03-28T13:05:05.303Z,3.10
2023-03-28T13:07:55.328Z,3.10
2023-03-28T13:10:34.715Z,2.90
2023-03-28T13:13:17.780Z,3.10
2023-03-28T13:16:08.109Z,3.30
2023-03-28T13:18:37.351Z,3.50
2023-03-28T13:21:15.127Z,4.00
2023-03-28T13:23:56.234Z,3.70
2023-03-28T13:26:25.368Z,4.20
2023-03-28T13:29:01.252Z,3.60
2023-03-28T13:31:41.993Z,3.60
2023-03-28T13:34:33.148Z,3.50
2023-03-28T13:37:22.945Z,4.00
2023-03-28T13:39:53.180Z,3.60
2023-03-28T13:42:35.876Z,3.50
2023-03-28T13:45:09.660Z,3.40
2023-03-28T13:47:46.337Z,3.20
2023-03-28T13:50:29.941Z,3.20
2023-03-28T13:52:59.525Z,2.70
2023-03-28T13:55:31.196Z,2.50
2023-03-28T13:58:03.072Z,2.50
2023-03-28T14:00:32.272Z,2.60
2023-03-28T14:03:06.131Z,2.80
2023-03-28T14:05:36.041Z,2.40
2023-03-28T14:08:25.165Z,3.30
2023-03-28T14:10:55.698Z,3.30
2023-03-28T14:13:34.424Z,2.90
2023-03-28T14:16:02.850Z,3.20
2023-03-28T14:18:43.046Z,3.40
2023-03-28T14:21:12.021Z,3.30
2023-03-28T14:23:55.750Z,3.00
2023-03-28T14:26:27.056Z,3.20
2023-03-28T14:29:01.832Z,2.80
2023-03-28T14:31:37.581Z,3.10
2023-03-28T14:34:18.231Z,3.00
2023-03-28T14:36:59.291Z,2.60
2023-03-28T14:39:28.764Z,3.10
2023-03-28T14:42:04.155Z,2.70
2023-03-28T14:44:38.058Z,3.60
2023-03-28T14:47:16.529Z,3.00
2023-03-28T14:49:46.965Z,2.80
2023-03-28T14:52:17.275Z,4.10
2023-03-28T14:54:48.092Z,3.30
2023-03-28T14:57:18.304Z,3.00
2023-03-28T14:59:51.743Z,3.00
2023-03-28T15:02:25.479Z,2.70
2023-03-28T15:05:01.081Z,2.50
2023-03-28T15:07:39.369Z,3.40
2023-03-28T15:10:10.893Z,2.50
2023-03-28T15:12:47.027Z,2.30
2023-03-28T15:15:17.988Z,3.50
2023-03-28T15:17:47.527Z,2.40
2023-03-28T15:20:24.994Z,3.50
2023-03-28T15:22:57.813Z,2.70
2023-03-28T15:25:27.399Z,3.40
2023-03-28T15:28:05.921Z,2.80
2023-03-28T15:30:41.970Z,3.00
2023-03-28T15:33:21.657Z,2.70
2023-03-28T15:35:51.768Z,2.60
2023-03-28T15:38:30.967Z,2.40
2023-03-28T15:41:11.372Z,2.30
2023-03-28T15:43:48.261Z,2.00
2023-03-28T15:46:16.974Z,2.30
2023-03-28T15:48:45.654Z,2.20
2023-03-28T15:51:20.105Z,2.50
2023-03-28T15:53:50.240Z,1.30
2023-03-28T15:56:25.187Z,1.90
2023-03-28T15:58:54.029Z,1.90
2023-03-28T16:01:31.301Z,1.90
2023-03-28T16:04:38.954Z,2.60
2023-03-28T16:07:29.465Z,2.10
2023-03-28T16:09:57.911Z,0.80
2023-03-28T16:12:28.352Z,2.30
2023-03-28T16:15:21.987Z,2.30
2023-03-28T16:17:59.924Z,1.40
2023-03-28T16:20:43.375Z,1.40
2023-03-28T16:23:13.783Z,0.80
2023-03-28T16:25:43.011Z,0.50
2023-03-28T16:28:22.343Z,0.50
2023-03-28T16:30:50.987Z,0.50
2023-03-28T16:33:19.795Z,0.40
2023-03-28T16:35:48.710Z,1.80
2023-03-28T16:38:18.666Z,0.50
2023-03-28T16:40:48.676Z,0.40
2023-03-28T16:43:17.545Z,0.20
2023-03-28T16:45:48.292Z,0.30
2023-03-28T16:48:16.921Z,0.70
2023-03-28T16:50:54.514Z,0.40
2023-03-28T16:53:27.909Z,0.70
2023-03-28T16:55:56.194Z,0.50
2023-03-28T16:58:24.453Z,0.20
2023-03-28T17:00:53.277Z,0.00
2023-03-28T17:03:22.166Z,-0.10
2023-03-28T17:05:50.598Z,-0.10
2023-03-28T17:08:18.822Z,-0.10
2023-03-28T17:10:48.552Z,-0.10
2023-03-28T17:13:17.799Z,-0.10
2023-03-28T17:15:46.201Z,-0.10
2023-03-28T17:18:16.980Z,-0.10
2023-03-28T17:20:45.377Z,-0.50
2023-03-28T17:23:17.014Z,0.00
2023-03-28T17:25:54.811Z,-0.20
2023-03-28T17:28:24.927Z,-0.20
2023-03-28T17:30:56.847Z,-0.20
2023-03-28T17:33:28.110Z,-0.20
2023-03-28T17:35:59.620Z,-0.20
2023-03-28T17:38:28.637Z,0.60
2023-03-28T17:40:57.848Z,-0.30
2023-03-28T17:43:34.552Z,-0.40
2023-03-28T17:46:28.202Z,-0.20
2023-03-28T17:48:56.568Z,-0.40
2023-03-28T17:51:25.217Z,-0.50
2023-03-28T17:53:53.496Z,-0.60
2023-03-28T17:56:22.284Z,-0.60
2023-03-28T17:58:52.508Z,-0.40
2023-03-28T18:01:22.543Z,-0.70
2023-03-28T18:03:51.177Z,-0.80
2023-03-28T18:06:44.193Z,-0.90
2023-03-28T18:09:15.684Z,-0.90
2023-03-28T18:11:44.207Z,-0.90
2023-03-28T18:14:14.014Z,-1.00
2023-03-28T18:16:44.694Z,-0.90
2023-03-28T18:19:17.787Z,-1.10
2023-03-28T18:21:46.705Z,-1.00
2023-03-28T18:24:15.158Z,-1.10
2023-03-28T18:26:43.980Z,-1.00
2023-03-28T18:29:14.597Z,-1.00
2023-03-28T18:31:47.407Z,-1.10
2023-03-28T18:34:15.824Z,-2.10
2023-03-28T18:36:45.519Z,-1.00
2023-03-28T18:39:23.212Z,-1.10
2023-03-28T18:41:51.970Z,-0.80
2023-03-28T18:44:24.015Z,-1.00
2023-03-28T18:46:58.571Z,-0.20
2023-03-28T18:49:27.109Z,-0.40
2023-03-28T18:51:55.819Z,-1.00
2023-03-28T18:54:24.319Z,-0.90
2023-03-28T18:56:52.846Z,-1.00
2023-03-28T18:59:23.367Z,-0.80
2023-03-28T19:01:55.383Z,-1.00
2023-03-28T19:04:30.336Z,-1.00
2023-03-28T19:06:58.651Z,-1.00
2023-03-28T19:09:29.812Z,-1.00
2023-03-28T19:11:58.100Z,-1.00
2023-03-28T19:14:27.948Z,-1.00
2023-03-28T19:16:56.373Z,-1.00
2023-03-28T19:19:25.143Z,-1.00
2023-03-28T19:21:53.474Z,-1.10
2023-03-28T19:24:22.003Z,-1.20
2023-03-28T19:26:58.885Z,-1.10
2023-03-28T19:29:30.171Z,-1.10
2023-03-28T19:31:58.593Z,-0.10
2023-03-28T19:34:27.999Z,-1.10
2023-03-28T19:36:56.319Z,-1.10
2023-03-28T19:39:24.945Z,-0.50
2023-03-28T19:41:54.168Z,-1.10
2023-03-28T19:44:22.561Z,-1.00
2023-03-28T19:46:52.325Z,-1.00
2023-03-28T19:49:20.661Z,-1.00
2023-03-28T19:51:49.030Z,-0.90
2023-03-28T19:54:17.265Z,-0.90
2023-03-28T19:56:46.057Z,-0.50
2023-03-28T19:59:14.461Z,-0.80
2023-03-28T20:01:42.846Z,-0.80
2023-03-28T20:04:12.620Z,-0.80
2023-03-28T20:06:40.991Z,-0.80
2023-03-28T20:09:09.211Z,-0.80
2023-03-28T20:11:39.925Z,-0.70
2023-03-28T20:14:08.132Z,-0.70
2023-03-28T20:16:36.414Z,-0.70
2023-03-28T20:19:05.817Z,-0.10
2023-03-28T20:21:35.473Z,-0.80
2023-03-28T20:24:04.796Z,-0.70
2023-03-28T20:26:33.291Z,-0.70
2023-03-28T20:29:01.699Z,-0.80
2023-03-28T20:31:30.356Z,-0.80
2023-03-28T20:33:58.813Z,-0.80
2023-03-28T20:36:27.337Z,-0.70
2023-03-28T20:38:57.062Z,-0.60
2023-03-28T20:41:28.563Z,-0.80
2023-03-28T20:44:03.578Z,-0.70
2023-03-28T20:46:34.471Z,-0.40
2023-03-28T20:49:06.230Z,-0.90
2023-03-28T20:51:39.308Z,-0.80
2023-03-28T20:54:09.323Z,-0.40
2023-03-28T20:56:37.806Z,-0.70
2023-03-28T20:59:06.185Z,0.00
2023-03-28T21:01:39.572Z,-0.70
2023-03-28T21:04:08.777Z,-0.70
2023-03-28T21:06:38.401Z,-0.80
2023-03-28T21:09:10.750Z,-0.70
2023-03-28T21:11:40.059Z,-0.60
2023-03-28T21:14:10.277Z,-0.70
2023-03-28T21:16:38.658Z,-0.60
2023-03-28T21:19:07.805Z,-0.70
2023-03-28T21:21:36.238Z,-0.80
2023-03-28T21:24:09.922Z,-0.90
2023-03-28T21:26:40.384Z,-0.90
2023-03-28T21:29:09.823Z,-0.50
2023-03-28T21:31:38.304Z,-0.90
2023-03-28T21:34:07.272Z,-1.00
2023-03-28T21:36:35.472Z,-1.00
2023-03-28T21:39:03.926Z,-1.10
2023-03-28T21:41:32.164Z,-1.10
2023-03-28T21:44:02.284Z,-1.30
2023-03-28T21:46:30.913Z,-1.40
2023-03-28T21:48:59.264Z,-1.50
2023-03-28T21:51:27.610Z,-1.40
2023-03-28T21:53:56.009Z,-1.50
2023-03-28T21:56:24.440Z,-1.60
2023-03-28T21:58:52.706Z,-1.50
2023-03-28T22:01:22.457Z,-1.50
2023-03-28T22:03:51.171Z,-1.60
2023-03-28T22:06:19.917Z,-1.60
2023-03-28T22:08:52.406Z,-1.70
2023-03-28T22:11:27.619Z,-1.70
2023-03-28T22:14:01.556Z,-1.70
2023-03-28T22:16:33.650Z,-1.70
2023-03-28T22:19:02.929Z,-1.60
2023-03-28T22:21:31.693Z,-1.80
2023-03-28T22:24:02.617Z,-1.80
2023-03-28T22:26:31.692Z,-1.20
2023-03-28T22:29:00.400Z,-1.80
2023-03-28T22:31:29.488Z,-2.00
2023-03-28T22:33:59.287Z,-2.00
2023-03-28T22:36:27.617Z,-2.00
2023-03-28T22:38:57.071Z,-2.10
2023-03-28T22:41:25.490Z,-2.20
2023-03-28T22:43:53.843Z,-1.60
2023-03-28T22:46:22.304Z,-2.30
2023-03-28T22:48:54.251Z,-2.20
2023-03-28T22:51:28.109Z,-2.30
2023-03-28T22:54:00.377Z,-2.00
2023-03-28T22:56:28.865Z,-1.80
2023-03-28T22:59:01.144Z,-2.30
2023-03-28T23:01:30.238Z,-2.40
2023-03-28T23:03:58.811Z,-2.30
2023-03-28T23:06:28.620Z,-2.40
2023-03-28T23:08:58.115Z,-2.20
2023-03-28T23:11:26.674Z,-2.30
2023-03-28T23:13:54.962Z,-2.50
2023-03-28T23:16:23.249Z,-2.40
2023-03-28T23:18:51.518Z,-2.40
2023-03-28T23:21:20.217Z,-2.30
2023-03-28T23:23:50.382Z,-2.30
2023-03-28T23:26:18.932Z,-1.20
2023-03-28T23:28:47.461Z,-1.70
2023-03-28T23:31:15.816Z,-2.10
2023-03-28T23:33:46.375Z,-2.40
2023-03-28T23:36:15.525Z,-1.10
2023-03-28T23:38:43.737Z,-2.50
2023-03-28T23:41:13.534Z,-2.50
2023-03-28T23:43:43.032Z,-2.60
2023-03-28T23:46:11.404Z,-2.30
2023-03-28T23:48:39.633Z,-2.60
2023-03-28T23:51:09.095Z,-2.60
2023-03-28T23:53:37.443Z,-2.70
2023-03-28T23:56:06.597Z,-2.70
2023-03-28T23:58:36.330Z,-2.80
